Time;durP1;ratioP1;P1;durP2;ratioP2;P2;SDS_P1;SDS_P2;PMS_P1;PMS_P2;Temp;Humidity;BMP_temperature;BMP_pressure;BME280_temperature;BME280_humidity;BME280_pressure;Samples;Min_cycle;Max_cycle;Signal;HPM_P1;HPM_P2
2022/05/02 00:01:33;;;;;;;20.40;13.30;;;;;;;6.36;69.33;100835.11;88290;1271;80321;-58
2022/05/02 00:03:42;;;;;;;20.60;13.70;;;;;;;6.35;69.47;100834.13;88314;1271;82430;-59
2022/05/02 00:05:51;;;;;;;21.10;13.40;;;;;;;6.35;69.44;100831.67;88318;1271;98636;-62
2022/05/02 00:08:00;;;;;;;18.70;13.90;;;;;;;6.36;69.44;100835.52;88304;1271;89351;-63
2022/05/02 00:10:12;;;;;;;18.60;13.20;;;;;;;6.36;69.27;100832.96;88298;1271;95381;-63
2022/05/02 00:12:21;;;;;;;19.10;13.60;;;;;;;6.31;69.29;100832.94;88316;1271;78438;-59
2022/05/02 00:14:30;;;;;;;18.20;13.40;;;;;;;6.28;69.41;100833.08;88302;1271;80734;-57
2022/05/02 00:16:39;;;;;;;18.50;13.10;;;;;;;6.23;69.25;100829.77;88255;1271;97531;-61
2022/05/02 00:18:48;;;;;;;20.70;14.00;;;;;;;6.18;69.51;100827.57;88318;1271;88524;-62
2022/05/02 00:20:57;;;;;;;22.00;13.90;;;;;;;6.20;69.47;100831.55;88269;1271;94616;-62
2022/05/02 00:23:09;;;;;;;19.90;14.00;;;;;;;6.22;69.39;100831.31;88290;1271;80190;-63
2022/05/02 00:25:18;;;;;;;20.40;13.50;;;;;;;6.23;69.67;100831.58;88319;1271;83048;-63
2022/05/02 00:27:27;;;;;;;22.70;14.10;;;;;;;6.26;69.64;100827.33;88288;1271;99040;-59
2022/05/02 00:29:36;;;;;;;23.50;13.80;;;;;;;6.29;69.82;100821.35;88272;1271;87993;-58
2022/05/02 00:31:47;;;;;;;17.40;13.10;;;;;;;6.36;69.94;100818.27;88308;1271;94539;-58
2022/05/02 00:33:55;;;;;;;19.20;13.80;;;;;;;6.45;69.98;100824.94;88289;1271;80336;-59
2022/05/02 00:36:05;;;;;;;18.10;13.90;;;;;;;6.54;70.02;100827.74;88326;1271;80633;-64
2022/05/02 00:38:17;;;;;;;20.70;14.10;;;;;;;6.65;70.05;100829.86;88334;1271;98087;-63
2022/05/02 00:40:26;;;;;;;17.20;13.70;;;;;;;6.78;70.12;100827.66;88344;1271;86936;-62
2022/05/02 00:42:35;;;;;;;17.90;13.10;;;;;;;6.83;69.87;100828.45;88297;1271;95944;-58
2022/05/02 00:44:46;;;;;;;18.20;13.60;;;;;;;6.81;70.07;100827.86;88303;1271;76697;-58
2022/05/02 00:46:56;;;;;;;18.80;12.60;;;;;;;6.84;69.80;100828.27;88353;1271;81362;-59
2022/05/02 00:49:04;;;;;;;17.20;12.30;;;;;;;6.85;69.84;100826.28;88287;1271;99505;-60
2022/05/02 00:51:17;;;;;;;20.30;11.50;;;;;;;6.86;69.69;100824.65;88373;1271;88189;-58
2022/05/02 00:53:28;;;;;;;16.80;10.90;;;;;;;6.91;69.67;100825.05;88299;1271;94139;-58
2022/05/02 00:55:37;;;;;;;17.60;11.20;;;;;;;6.94;69.57;100823.37;88299;1271;81572;-62
2022/05/02 00:57:50;;;;;;;16.30;11.20;;;;;;;6.94;69.72;100823.83;88322;1271;83641;-59
2022/05/02 01:00:01;;;;;;;17.40;11.40;;;;;;;6.94;69.61;100825.13;88310;1271;99604;-59
2022/05/02 01:02:15;;;;;;;15.90;11.80;;;;;;;6.89;69.70;100825.05;88330;1271;88718;-59
2022/05/02 01:04:23;;;;;;;18.50;11.00;;;;;;;6.88;69.65;100829.14;88325;1271;94695;-59
2022/05/02 01:08:59;;;;;;;17.90;12.20;;;;;;;6.83;69.99;100823.59;88288;1271;83021;-59
2022/05/02 01:11:09;;;;;;;19.20;12.40;;;;;;;6.85;69.93;100826.24;88304;1271;98631;-62
2022/05/02 01:13:33;;;;;;;17.20;12.00;;;;;;;6.80;69.90;100825.14;88314;1271;87621;-63
2022/05/02 01:15:43;;;;;;;15.90;12.00;;;;;;;6.69;69.86;100821.39;88313;1271;95484;-63
2022/05/02 01:17:51;;;;;;;14.20;11.00;;;;;;;6.60;69.93;100820.56;88301;1271;80854;-58
2022/05/02 01:20:10;;;;;;;16.30;10.90;;;;;;;6.51;69.99;100818.33;88345;1271;80311;-58
2022/05/02 01:22:21;;;;;;;16.70;10.60;;;;;;;6.50;70.07;100819.02;88300;1271;98115;-59
2022/05/02 01:24:43;;;;;;;13.60;10.90;;;;;;;6.46;70.16;100815.80;88316;1271;87985;-59
2022/05/02 01:26:54;;;;;;;14.70;10.70;;;;;;;6.43;70.29;100816.14;88296;1271;94000;-59
2022/05/02 01:29:07;;;;;;;14.30;11.20;;;;;;;6.37;70.50;100814.79;88288;1271;79704;-58
2022/05/02 01:31:18;;;;;;;19.30;12.00;;;;;;;6.31;70.39;100814.27;88316;1271;82487;-59
2022/05/02 01:33:26;;;;;;;15.60;10.90;;;;;;;6.28;70.66;100816.81;88298;1271;99803;-59
2022/05/02 01:35:35;;;;;;;17.20;11.30;;;;;;;6.27;70.56;100818.34;88321;1271;88675;-58
2022/05/02 01:37:44;;;;;;;16.10;11.30;;;;;;;6.22;70.62;100821.80;88321;1271;94796;-63
2022/05/02 01:39:53;;;;;;;17.60;12.10;;;;;;;6.20;70.84;100819.37;88292;1271;78331;-62
2022/05/02 01:42:07;;;;;;;15.60;11.80;;;;;;;6.16;70.63;100817.99;88358;1271;80419;-59
2022/05/02 01:44:16;;;;;;;15.20;11.50;;;;;;;6.08;70.56;100817.70;88305;1271;98007;-58
2022/05/02 01:46:25;;;;;;;18.50;13.00;;;;;;;6.03;70.74;100814.65;88353;1271;88961;-62
2022/05/02 01:48:34;;;;;;;18.10;13.00;;;;;;;5.98;70.74;100816.80;88288;1271;95167;-63
2022/05/02 01:50:43;;;;;;;19.40;11.90;;;;;;;5.92;70.87;100813.88;88282;1271;79176;-62
2022/05/02 01:52:52;;;;;;;16.20;11.20;;;;;;;5.91;70.99;100813.98;88333;1270;79914;-62
2022/05/02 01:55:01;;;;;;;17.80;11.80;;;;;;;5.90;70.99;100814.67;88282;1271;98201;-62
2022/05/02 01:57:10;;;;;;;17.80;11.80;;;;;;;5.86;71.05;100816.98;88305;1268;88787;-62
2022/05/02 01:59:19;;;;;;;17.60;11.40;;;;;;;5.85;71.02;100817.67;88293;1271;94740;-61
2022/05/02 02:01:28;;;;;;;26.30;11.00;;;;;;;5.86;71.23;100817.20;88313;1271;80525;-62
2022/05/02 02:03:36;;;;;;;15.70;11.00;;;;;;;5.84;71.09;100820.07;88283;1271;81559;-64
2022/05/02 02:05:51;;;;;;;17.40;11.10;;;;;;;5.86;71.06;100821.62;88299;1271;97820;-63
2022/05/02 02:08:00;;;;;;;16.80;11.60;;;;;;;5.81;71.17;100821.70;88315;1271;88949;-61
2022/05/02 02:10:12;;;;;;;18.10;11.00;;;;;;;5.78;71.33;100822.20;88273;1271;94528;-63
2022/05/02 02:12:24;;;;;;;15.40;10.60;;;;;;;5.76;71.47;100824.05;88278;1271;79080;-62
2022/05/02 02:14:33;;;;;;;16.30;10.70;;;;;;;5.78;71.51;100826.89;88306;1271;82208;-62
2022/05/02 02:16:42;;;;;;;14.80;11.30;;;;;;;5.73;71.51;100827.41;88315;1271;98884;-62
2022/05/02 02:18:51;;;;;;;14.60;10.80;;;;;;;5.67;71.62;100824.59;88293;1273;89322;-63
2022/05/02 02:20:59;;;;;;;15.10;10.40;;;;;;;5.62;71.60;100825.03;88275;1271;94108;-58
2022/05/02 02:23:08;;;;;;;13.80;10.90;;;;;;;5.59;71.65;100822.99;88260;1271;78902;-58
2022/05/02 02:25:20;;;;;;;15.30;11.20;;;;;;;5.57;71.74;100824.80;88306;1271;81219;-58
2022/05/02 02:27:29;;;;;;;14.20;10.60;;;;;;;5.57;71.85;100828.52;88287;1271;95942;-59
2022/05/02 02:29:37;;;;;;;14.20;10.00;;;;;;;5.59;71.67;100824.80;88289;1271;88401;-59
2022/05/02 02:31:46;;;;;;;15.70;10.30;;;;;;;5.60;71.89;100828.89;88324;1271;94297;-62
2022/05/02 02:33:56;;;;;;;14.90;10.10;;;;;;;5.59;71.83;100826.73;88307;1271;81454;-62
2022/05/02 02:36:06;;;;;;;15.50;11.10;;;;;;;5.59;71.99;100829.08;88307;1271;82930;-59
2022/05/02 02:38:15;;;;;;;14.70;10.30;;;;;;;5.55;71.86;100825.44;88336;1271;97563;-58
2022/05/02 02:40:24;;;;;;;14.50;10.40;;;;;;;5.56;72.08;100823.88;88284;1273;89026;-59
2022/05/02 02:42:33;;;;;;;12.80;10.80;;;;;;;5.57;72.07;100822.66;88277;1271;95455;-58
2022/05/02 02:44:46;;;;;;;13.30;10.70;;;;;;;5.56;71.97;100821.50;88309;1271;79187;-57
2022/05/02 02:46:55;;;;;;;14.40;10.90;;;;;;;5.53;72.09;100822.76;88302;1271;82256;-58
2022/05/02 02:49:06;;;;;;;13.40;10.50;;;;;;;5.48;72.29;100820.18;88325;1271;98713;-62
2022/05/02 02:51:16;;;;;;;13.20;10.50;;;;;;;5.43;72.16;100814.92;88306;1271;88742;-61
2022/05/02 02:53:25;;;;;;;15.00;10.80;;;;;;;5.41;72.15;100818.54;88293;1272;95544;-62
2022/05/02 02:55:34;;;;;;;14.70;10.70;;;;;;;5.35;72.23;100820.65;88322;1271;78925;-62
2022/05/02 02:57:43;;;;;;;14.20;10.50;;;;;;;5.32;72.49;100820.03;88310;1271;80625;-58
2022/05/02 02:59:52;;;;;;;14.20;10.40;;;;;;;5.30;72.59;100823.14;88292;1271;99219;-59
2022/05/02 03:02:01;;;;;;;14.80;11.20;;;;;;;5.28;72.53;100823.83;88289;1273;88795;-58
2022/05/02 03:06:52;;;;;;;15.30;11.20;;;;;;;5.26;72.70;100820.61;88140;1274;82117;-61
2022/05/02 03:09:04;;;;;;;13.20;10.10;;;;;;;5.27;72.78;100824.13;88236;1271;81566;-61
2022/05/02 03:11:13;;;;;;;14.80;10.30;;;;;;;5.26;72.79;100825.60;88279;1271;99163;-61
2022/05/02 03:13:23;;;;;;;13.70;10.40;;;;;;;5.29;72.83;100823.04;88307;1271;87552;-62
2022/05/02 03:15:33;;;;;;;12.70;10.30;;;;;;;5.26;72.96;100830.48;88263;1273;94412;-62
2022/05/02 03:17:45;;;;;;;14.30;10.30;;;;;;;5.25;73.04;100832.36;88268;1273;78978;-59
2022/05/02 03:19:57;;;;;;;15.10;10.80;;;;;;;5.22;73.08;100830.52;88289;1271;82619;-58
2022/05/02 03:22:07;;;;;;;15.50;10.60;;;;;;;5.18;73.25;100830.30;88207;1271;98962;-61
2022/05/02 03:24:18;;;;;;;14.60;10.60;;;;;;;5.15;73.20;100831.52;88316;1271;90000;-61
2022/05/02 03:26:31;;;;;;;13.30;10.10;;;;;;;5.11;73.22;100827.84;88294;1271;94216;-62
2022/05/02 03:28:42;;;;;;;14.30;10.30;;;;;;;5.11;73.22;100828.88;88278;1271;80105;-62
2022/05/02 03:30:51;;;;;;;15.90;10.20;;;;;;;5.10;73.22;100825.92;88298;1271;80843;-59
2022/05/02 03:33:03;;;;;;;14.60;10.00;;;;;;;5.14;73.29;100825.23;88277;1273;98088;-58
2022/05/02 03:35:15;;;;;;;15.10;10.60;;;;;;;5.20;73.41;100827.52;88306;1270;88996;-58
2022/05/02 03:37:24;;;;;;;13.60;9.70;;;;;;;5.28;73.45;100829.38;88263;1270;93392;-62
2022/05/02 03:39:33;;;;;;;13.50;10.40;;;;;;;5.37;73.49;100823.73;88291;1271;80461;-62
2022/05/02 03:41:42;;;;;;;13.90;9.60;;;;;;;5.46;73.53;100825.07;88272;1271;81480;-61
2022/05/02 03:43:51;;;;;;;13.60;9.70;;;;;;;5.57;73.45;100826.09;88063;1271;299510;-62
2022/05/02 03:46:00;;;;;;;17.60;10.50;;;;;;;5.68;73.58;100825.21;88284;1272;88420;-62
2022/05/02 03:48:10;;;;;;;14.30;10.80;;;;;;;5.83;73.52;100827.30;88285;1271;94220;-62
2022/05/02 03:50:20;;;;;;;14.50;9.60;;;;;;;6.06;73.44;100826.88;88333;1271;76942;-62
2022/05/02 03:52:29;;;;;;;16.80;10.90;;;;;;;6.41;73.67;100827.32;88321;1271;81734;-60
2022/05/02 03:54:40;;;;;;;13.10;10.10;;;;;;;7.01;73.16;100824.95;88299;1271;99397;-59
2022/05/02 03:56:49;;;;;;;15.10;11.70;;;;;;;7.46;72.90;100824.34;88296;1271;88356;-58
2022/05/02 03:58:58;;;;;;;16.70;10.10;;;;;;;7.84;72.38;100824.19;88304;1271;94364;-59
2022/05/02 04:01:08;;;;;;;14.60;10.40;;;;;;;8.58;72.35;100818.28;88306;1271;79041;-62
2022/05/02 04:03:16;;;;;;;12.40;9.20;;;;;;;9.36;71.30;100817.47;88316;1271;82606;-61
2022/05/02 04:05:26;;;;;;;13.10;9.90;;;;;;;10.03;70.54;100815.27;88287;1271;96598;-63
2022/05/02 04:07:34;;;;;;;11.90;9.70;;;;;;;10.54;69.49;100815.17;88319;1271;89513;-63
2022/05/02 04:09:43;;;;;;;13.70;9.70;;;;;;;10.67;69.02;100820.86;88312;1272;95191;-68
2022/05/02 04:11:52;;;;;;;13.90;9.60;;;;;;;10.70;68.63;100818.77;88284;1271;78431;-65
2022/05/02 04:14:01;;;;;;;12.90;9.80;;;;;;;10.45;68.14;100822.55;88311;1271;81711;-65
2022/05/02 04:16:10;;;;;;;15.40;10.20;;;;;;;10.26;68.28;100820.46;88298;1271;98286;-65
2022/05/02 04:18:19;;;;;;;16.80;10.80;;;;;;;10.43;67.89;100818.82;88313;1271;86487;-65
2022/05/02 04:20:32;;;;;;;14.30;10.80;;;;;;;10.68;67.28;100820.83;88297;1272;95006;-68
2022/05/02 04:22:44;;;;;;;18.20;11.00;;;;;;;10.66;66.99;100822.25;88323;1272;79389;-64
2022/05/02 04:24:53;;;;;;;16.30;10.90;;;;;;;10.77;66.87;100826.32;88332;1271;81968;-64
2022/05/02 04:27:03;;;;;;;18.70;10.80;;;;;;;10.78;66.63;100827.20;88310;1271;97140;-60
2022/05/02 04:29:11;;;;;;;20.00;12.90;;;;;;;10.82;66.57;100827.00;88345;1271;86183;-60
2022/05/02 04:31:23;;;;;;;17.00;11.60;;;;;;;11.06;66.52;100832.03;88285;1271;95520;-60
2022/05/02 04:33:32;;;;;;;22.40;12.80;;;;;;;11.45;66.31;100833.75;88292;1271;79461;-61
2022/05/02 04:35:41;;;;;;;21.70;12.20;;;;;;;12.38;66.04;100825.64;88314;1271;81385;-61
2022/05/02 04:37:50;;;;;;;21.90;13.00;;;;;;;13.72;65.02;100821.18;88294;1271;98203;-60
2022/05/02 04:39:59;;;;;;;19.60;11.10;;;;;;;14.97;63.61;100821.10;88313;1271;88834;-60
2022/05/02 04:42:10;;;;;;;17.20;10.90;;;;;;;15.60;62.26;100826.41;88327;1271;94915;-61
2022/05/02 04:44:19;;;;;;;16.70;10.80;;;;;;;15.75;60.94;100823.54;88303;1271;79971;-59
2022/05/02 04:46:31;;;;;;;17.60;11.20;;;;;;;15.13;60.32;100820.33;88318;1271;80855;-65
2022/05/02 04:48:40;;;;;;;17.80;10.90;;;;;;;15.27;60.00;100820.00;88317;1271;98733;-66
2022/05/02 04:50:48;;;;;;;15.90;11.10;;;;;;;16.00;59.38;100818.64;88290;1271;89380;-60
2022/05/02 04:53:00;;;;;;;16.00;11.50;;;;;;;16.97;58.78;100816.30;88300;1271;93418;-60
2022/05/02 04:55:13;;;;;;;17.30;11.30;;;;;;;18.12;57.57;100812.76;88303;1271;78328;-59
2022/05/02 04:57:21;;;;;;;16.70;12.00;;;;;;;19.22;56.15;100812.98;88319;1271;83328;-62
2022/05/02 04:59:33;;;;;;;15.80;10.20;;;;;;;20.23;54.33;100814.23;88317;1271;97044;-62
2022/05/02 05:01:45;;;;;;;12.60;8.60;;;;;;;20.84;52.66;100806.05;88350;1271;87663;-63
2022/05/02 05:03:56;;;;;;;13.60;8.40;;;;;;;21.44;51.20;100804.38;88290;1271;95734;-59
2022/05/02 05:06:05;;;;;;;11.00;8.20;;;;;;;22.11;49.41;100801.83;88308;1272;77984;-60
2022/05/02 05:08:17;;;;;;;10.20;8.80;;;;;;;22.77;47.96;100803.07;88325;1272;79980;-60
2022/05/02 05:10:26;;;;;;;9.90;8.30;;;;;;;23.14;47.09;100798.77;88293;1271;98847;-60
2022/05/02 05:12:55;;;;;;;9.00;7.80;;;;;;;23.27;46.19;100801.64;88314;1271;89446;-65
2022/05/02 05:18:02;;;;;;;10.70;7.30;;;;;;;24.21;43.10;100796.98;88317;1271;78408;-66
2022/05/02 05:20:22;;;;;;;9.80;6.80;;;;;;;24.78;41.62;100795.27;88348;1271;82054;-66
2022/05/02 05:22:57;;;;;;;10.40;6.80;;;;;;;24.62;39.57;100794.11;88291;1271;99228;-66
2022/05/02 05:25:36;;;;;;;9.20;7.10;;;;;;;24.82;39.37;100792.23;88316;1271;88388;-65
2022/05/02 05:28:16;;;;;;;9.90;7.40;;;;;;;25.23;37.65;100789.36;88281;1271;95734;-61
2022/05/02 05:30:36;;;;;;;7.80;5.90;;;;;;;25.22;38.03;100787.88;88302;1271;79606;-61
2022/05/02 05:33:00;;;;;;;6.50;5.00;;;;;;;25.56;36.96;100788.60;88314;1271;80384;-61
2022/05/02 05:35:11;;;;;;;8.80;5.00;;;;;;;25.81;35.42;100786.84;88293;1271;98340;-60
2022/05/02 05:38:02;;;;;;;7.40;4.80;;;;;;;26.16;35.11;100784.49;88330;1271;89095;-65
2022/05/02 05:40:21;;;;;;;6.70;4.90;;;;;;;26.28;33.98;100781.90;88309;1271;95060;-66
2022/05/02 05:42:40;;;;;;;9.50;5.10;;;;;;;26.45;33.49;100783.77;88320;1271;78684;-59
2022/05/02 05:45:04;;;;;;;6.70;4.30;;;;;;;26.37;32.47;100783.97;88275;1271;82546;-61
2022/05/02 05:47:31;;;;;;;5.40;4.60;;;;;;;26.33;31.51;100784.31;88279;1271;98950;-60
2022/05/02 05:50:00;;;;;;;5.20;4.10;;;;;;;26.62;30.48;100779.02;88314;1271;87796;-61
2022/05/02 05:52:16;;;;;;;6.50;5.30;;;;;;;26.91;30.44;100779.94;88293;1271;94425;-61
2022/05/02 05:54:49;;;;;;;5.60;4.10;;;;;;;27.56;29.89;100774.39;88292;1271;78719;-60
2022/05/02 05:57:15;;;;;;;6.00;4.40;;;;;;;28.16;30.36;100780.70;88322;1271;83100;-67
2022/05/02 05:59:40;;;;;;;7.00;4.20;;;;;;;28.64;29.43;100777.08;88310;1271;98494;-66
2022/05/02 06:02:03;;;;;;;5.80;4.20;;;;;;;28.81;28.62;100775.73;88341;1271;89365;-60
2022/05/02 06:04:14;;;;;;;7.20;4.50;;;;;;;28.99;27.96;100778.29;88278;1271;95859;-60
2022/05/02 06:06:24;;;;;;;8.90;5.00;;;;;;;28.68;27.40;100774.97;88296;1271;78089;-67
2022/05/02 06:08:36;;;;;;;8.70;4.60;;;;;;;28.73;27.85;100773.12;88321;1271;80892;-68
2022/05/02 06:10:50;;;;;;;7.80;5.30;;;;;;;29.10;28.00;100770.60;88301;1271;99034;-68
2022/05/02 06:13:01;;;;;;;9.90;4.90;;;;;;;29.98;26.94;100762.66;88318;1271;88460;-68
2022/05/02 06:20:14;;;;;;;7.60;4.60;;;;;;;30.28;24.88;100763.20;88329;1271;81065;-61
2022/05/02 06:22:23;;;;;;;6.00;4.30;;;;;;;30.01;25.13;100763.64;88336;1271;99526;-62
2022/05/02 06:24:37;;;;;;;11.70;5.10;;;;;;;30.35;25.63;100763.94;88341;1271;87472;-64
2022/05/02 06:26:48;;;;;;;7.90;4.50;;;;;;;30.54;24.12;100763.27;88277;1271;96184;-70
2022/05/02 06:29:00;;;;;;;5.40;4.20;;;;;;;30.76;24.30;100762.63;88303;1271;78512;-68
2022/05/02 06:31:17;;;;;;;6.90;4.50;;;;;;;30.63;24.01;100764.56;88318;1271;82347;-68
2022/05/02 06:33:26;;;;;;;8.30;4.60;;;;;;;30.79;23.30;100766.35;88310;1271;99393;-68
2022/05/02 06:35:52;;;;;;;7.10;4.00;;;;;;;30.68;23.63;100765.73;88330;1271;89285;-68
2022/05/02 06:38:10;;;;;;;5.00;4.20;;;;;;;30.90;22.78;100764.61;88276;1271;94341;-67
2022/05/02 06:40:34;;;;;;;5.80;4.20;;;;;;;30.62;23.18;100766.75;88286;1271;79045;-69
2022/05/02 06:42:55;;;;;;;5.30;3.70;;;;;;;31.22;22.82;100765.71;88298;1271;82468;-70
2022/05/02 06:45:29;;;;;;;6.90;4.20;;;;;;;31.41;23.09;100760.95;88323;1271;97626;-69
2022/05/02 06:48:23;;;;;;;5.40;4.10;;;;;;;31.81;22.55;100762.20;88298;1271;89972;-63
2022/05/02 06:50:37;;;;;;;6.80;4.00;;;;;;;32.02;22.30;100757.52;88284;1271;95565;-63
2022/05/02 06:53:02;;;;;;;6.50;4.10;;;;;;;32.12;21.97;100760.86;88330;1271;78939;-63
2022/05/02 06:55:26;;;;;;;5.20;4.00;;;;;;;32.52;21.65;100760.44;88342;1271;80893;-65
2022/05/02 06:57:56;;;;;;;7.50;3.90;;;;;;;32.78;20.94;100757.98;88280;1271;99806;-62
2022/05/02 07:00:10;;;;;;;4.90;4.40;;;;;;;32.37;21.79;100755.36;88294;1271;88623;-62
2022/05/02 07:02:42;;;;;;;5.80;4.60;;;;;;;32.77;21.80;100750.59;88297;1271;95440;-63
2022/05/02 07:04:56;;;;;;;5.20;4.50;;;;;;;32.91;20.83;100752.05;88302;1271;78184;-62
2022/05/02 07:07:24;;;;;;;5.70;4.40;;;;;;;33.12;20.91;100755.17;88305;1271;81721;-62
2022/05/02 07:09:46;;;;;;;5.90;4.60;;;;;;;33.63;20.46;100753.23;88301;1271;97832;-63
2022/05/02 07:12:12;;;;;;;8.00;4.40;;;;;;;33.83;20.32;100752.50;88305;1271;88970;-62
2022/05/02 07:14:33;;;;;;;7.20;4.30;;;;;;;33.89;19.91;100748.13;88309;1271;94780;-62
2022/05/02 07:16:49;;;;;;;6.30;4.30;;;;;;;32.98;20.84;100755.52;88233;1273;80775;-64
2022/05/02 07:19:36;;;;;;;4.90;4.40;;;;;;;33.15;20.75;100753.05;88331;1271;82128;-63
2022/05/02 07:21:56;;;;;;;5.60;4.40;;;;;;;33.24;20.27;100758.22;88325;1270;97557;-62
2022/05/02 07:24:31;;;;;;;8.40;4.60;;;;;;;33.53;20.47;100754.30;88325;1271;88085;-64
2022/05/02 07:26:42;;;;;;;4.80;4.20;;;;;;;33.47;20.14;100763.63;88282;1271;94592;-65
2022/05/02 07:28:52;;;;;;;6.70;4.30;;;;;;;32.48;20.35;100764.68;88286;1271;80218;-62
2022/05/02 07:31:02;;;;;;;6.00;4.60;;;;;;;31.58;20.76;100764.84;88304;1271;81399;-67
2022/05/02 07:33:15;;;;;;;5.80;4.30;;;;;;;31.13;20.78;100769.31;88322;1271;98581;-68
2022/05/02 07:35:26;;;;;;;;;;;;;;;30.74;20.94;100761.79;88335;1271;87217;-68
2022/05/02 07:37:39;;;;;;;7.80;4.50;;;;;;;31.13;21.35;100768.57;88281;1271;95057;-69
2022/05/02 07:39:52;;;;;;;9.10;4.50;;;;;;;31.71;20.94;100769.59;88252;1273;81219;-69
2022/05/02 07:42:08;;;;;;;5.90;4.70;;;;;;;31.92;21.20;100766.84;88338;1271;82835;-63
2022/05/02 07:44:24;;;;;;;6.10;4.30;;;;;;;32.63;20.48;100774.23;88318;1271;97751;-63
2022/05/02 07:46:41;;;;;;;6.80;4.60;;;;;;;32.68;20.50;100773.35;88309;1271;87824;-68
2022/05/02 07:48:56;;;;;;;7.60;4.50;;;;;;;32.81;20.95;100769.98;88358;1271;94742;-70
2022/05/02 07:51:10;;;;;;;7.30;4.50;;;;;;;32.63;20.80;100767.44;88292;1271;80071;-67
2022/05/02 07:53:23;;;;;;;6.10;4.40;;;;;;;32.82;20.92;100765.46;88344;1271;81093;-69
2022/05/02 07:55:36;;;;;;;7.70;4.20;;;;;;;33.00;20.79;100756.68;88252;1273;100027;-70
2022/05/02 07:57:49;;;;;;;6.80;5.00;;;;;;;32.99;20.59;100760.52;88321;1271;88464;-69
2022/05/02 08:00:05;;;;;;;5.90;4.80;;;;;;;33.37;20.61;100758.73;88257;1273;95241;-68
2022/05/02 08:02:20;;;;;;;7.80;4.60;;;;;;;33.08;20.41;100760.13;88364;1271;80239;-68
2022/05/02 08:04:33;;;;;;;6.20;4.50;;;;;;;32.77;20.32;100765.92;88363;1271;81863;-68
2022/05/02 08:07:11;;;;;;;6.80;4.80;;;;;;;33.00;20.42;100759.41;88335;1271;97738;-63
2022/05/02 08:09:44;;;;;;;7.20;4.20;;;;;;;33.08;20.46;100755.65;88095;1276;89261;-63
2022/05/02 08:12:10;;;;;;;9.00;4.70;;;;;;;32.81;20.37;100757.72;88247;1273;94143;-68
2022/05/02 08:14:32;;;;;;;5.80;4.00;;;;;;;32.32;19.78;100753.20;88289;1271;78978;-68
2022/05/02 08:16:54;;;;;;;8.90;4.70;;;;;;;31.38;20.09;100746.55;88353;1271;82479;-68
2022/05/02 08:19:28;;;;;;;6.10;4.70;;;;;;;30.82;20.87;100750.70;88337;1271;99625;-67
2022/05/02 08:21:46;;;;;;;9.40;4.40;;;;;;;31.02;21.00;100747.38;88332;1271;89369;-66
2022/05/02 08:27:28;;;;;;;6.10;4.60;;;;;;;31.68;20.90;100742.42;88286;1271;79474;-65
2022/05/02 08:29:57;;;;;;;5.50;3.90;;;;;;;30.87;21.11;100742.27;88309;1271;81918;-64
2022/05/02 08:32:15;;;;;;;7.90;4.30;;;;;;;31.02;21.42;100740.90;88348;1270;97545;-66
2022/05/02 08:34:37;;;;;;;6.80;4.90;;;;;;;31.54;21.32;100742.58;88342;1271;88051;-66
2022/05/02 08:36:59;;;;;;;5.90;4.80;;;;;;;31.75;21.02;100742.63;88317;1271;94169;-67
2022/05/02 08:39:11;;;;;;;5.60;4.10;;;;;;;31.65;20.93;100737.98;88315;1271;78354;-67
2022/05/02 08:42:12;;;;;;;7.40;5.00;;;;;;;31.40;21.19;100737.40;88348;1271;81888;-68
2022/05/02 08:45:05;;;;;;;6.80;4.20;;;;;;;31.52;20.97;100734.25;88193;1271;100211;-71
2022/05/02 08:47:33;;;;;;;;;;;;;;;31.41;21.09;100732.34;88302;1271;87995;-63
2022/05/02 08:50:23;;;;;;;7.60;4.20;;;;;;;31.67;20.80;100731.55;88247;1273;95104;-62
2022/05/02 08:53:12;;;;;;;5.90;4.20;;;;;;;31.92;21.03;100725.90;88316;1271;78609;-71
2022/05/02 08:55:56;;;;;;;7.60;4.80;;;;;;;32.22;21.15;100721.54;88327;1271;82341;-68
2022/05/02 08:59:05;;;;;;;5.60;4.10;;;;;;;31.82;21.05;100717.05;88385;1271;99627;-62
2022/05/02 09:01:42;;;;;;;6.50;4.20;;;;;;;31.26;21.40;100712.01;88107;1276;88294;-63
2022/05/02 09:04:55;;;;;;;5.50;4.20;;;;;;;31.77;21.03;100710.09;88077;1276;95217;-65
2022/05/02 09:07:54;;;;;;;5.40;4.20;;;;;;;32.17;21.00;100707.55;87904;1278;79926;-68
2022/05/02 09:10:30;;;;;;;4.80;3.80;;;;;;;32.15;21.42;100703.73;88366;1271;81926;-68
2022/05/02 09:13:25;;;;;;;5.40;4.10;;;;;;;31.58;20.86;100704.02;88308;1271;98841;-61
2022/05/02 09:16:35;;;;;;;5.20;4.00;;;;;;;30.96;20.99;100697.53;88324;1271;89259;-58
2022/05/02 09:19:31;;;;;;;6.20;4.00;;;;;;;30.46;21.42;100699.67;88299;1271;95106;-64
2022/05/02 09:22:12;;;;;;;6.70;4.10;;;;;;;29.80;21.64;100698.64;88312;1271;78161;-64
2022/05/02 09:25:00;;;;;;;5.40;4.30;;;;;;;29.34;22.11;100699.20;88347;1271;83196;-64
2022/05/02 09:27:28;;;;;;;5.70;4.30;;;;;;;29.17;21.59;100694.60;88314;1271;98694;-60
2022/05/02 09:30:45;;;;;;;5.90;4.10;;;;;;;28.80;21.94;100696.65;88319;1271;88178;-60
2022/05/02 09:33:19;;;;;;;6.80;4.20;;;;;;;28.10;22.20;100698.29;88326;1271;93205;-64
2022/05/02 09:35:35;;;;;;;4.60;4.00;;;;;;;27.69;22.81;100695.67;88303;1271;78665;-64
2022/05/02 09:37:57;;;;;;;5.90;4.20;;;;;;;27.40;22.75;100693.77;88316;1271;80870;-65
2022/05/02 09:40:15;;;;;;;6.60;4.00;;;;;;;27.55;23.03;100690.02;88331;1271;98144;-64
2022/05/02 09:42:51;;;;;;;6.00;4.10;;;;;;;27.60;23.67;100688.52;88378;1271;89229;-61
2022/05/02 09:51:12;;;;;;;6.80;4.10;;;;;;;26.84;24.55;100678.02;88338;1271;82675;-61
2022/05/02 09:53:43;;;;;;;4.80;3.60;;;;;;;26.88;24.41;100674.95;88326;1271;98917;-60
2022/05/02 09:58:41;;;;;;;5.50;3.70;;;;;;;26.42;23.97;100672.05;88303;1271;95363;-63
2022/05/02 10:01:09;;;;;;;;;;;;;;;26.03;24.18;100669.55;88350;1271;81127;-60
2022/05/02 10:03:30;;;;;;;5.80;4.20;;;;;;;25.80;24.48;100668.16;88305;1271;81568;-65
2022/05/02 10:05:50;;;;;;;5.90;4.10;;;;;;;25.36;24.94;100666.77;88321;1271;97371;-65
2022/05/02 10:08:14;;;;;;;6.60;4.10;;;;;;;25.04;25.18;100666.98;88335;1269;89527;-63
2022/05/02 10:10:42;;;;;;;5.80;3.80;;;;;;;24.58;25.54;100666.14;88292;1271;95881;-66
2022/05/02 10:13:02;;;;;;;7.40;3.50;;;;;;;24.15;26.04;100668.91;88327;1268;79456;-62
2022/05/02 10:15:36;;;;;;;5.60;3.70;;;;;;;23.86;26.51;100669.35;88315;1271;80871;-62
2022/05/02 10:18:38;;;;;;;5.10;3.20;;;;;;;23.42;26.81;100666.10;88314;1271;97606;-62
2022/05/02 10:21:08;;;;;;;4.70;3.20;;;;;;;23.16;27.43;100657.20;88214;1270;88045;-61
2022/05/02 10:23:39;;;;;;;5.60;3.60;;;;;;;23.01;27.78;100656.77;88288;1271;94474;-63
2022/05/02 10:25:59;;;;;;;6.10;3.60;;;;;;;22.88;28.10;100650.78;88319;1271;78846;-66
2022/05/02 10:28:49;;;;;;;6.50;3.20;;;;;;;22.91;28.03;100650.64;88333;1271;82854;-61
2022/05/02 10:31:09;;;;;;;6.80;3.10;;;;;;;22.76;28.52;100649.86;88336;1271;99849;-65
2022/05/02 10:33:26;;;;;;;4.10;3.50;;;;;;;22.57;28.62;100646.59;88328;1271;88215;-61
2022/05/02 10:35:42;;;;;;;7.30;3.30;;;;;;;22.39;28.94;100643.22;88294;1271;95132;-62
2022/05/02 10:37:59;;;;;;;4.90;3.60;;;;;;;22.23;29.31;100641.41;88283;1271;79797;-64
2022/05/02 10:40:13;;;;;;;4.60;2.90;;;;;;;22.09;29.25;100639.89;88330;1271;83205;-67
2022/05/02 10:42:30;;;;;;;4.20;3.50;;;;;;;21.94;29.35;100636.79;88317;1272;98698;-65
2022/05/02 10:44:56;;;;;;;6.90;3.50;;;;;;;21.94;29.43;100635.04;88331;1271;86947;-67
2022/05/02 10:47:12;;;;;;;5.40;3.50;;;;;;;22.40;28.87;100630.61;88337;1271;95263;-66
2022/05/02 10:49:41;;;;;;;5.90;3.50;;;;;;;22.79;29.05;100628.62;88247;1273;79992;-69
2022/05/02 10:52:03;;;;;;;6.50;3.40;;;;;;;22.99;28.35;100623.13;88311;1271;81396;-59
2022/05/02 10:54:29;;;;;;;5.50;3.50;;;;;;;23.04;27.80;100621.46;88305;1271;98940;-61
2022/05/02 10:56:44;;;;;;;7.10;3.50;;;;;;;22.68;28.01;100621.19;88321;1271;86987;-65
2022/05/02 10:58:55;;;;;;;5.30;3.40;;;;;;;22.55;28.40;100621.79;88318;1271;96057;-68
2022/05/02 11:01:30;;;;;;;4.40;3.30;;;;;;;22.42;28.59;100620.51;88339;1271;78852;-67
2022/05/02 11:03:53;;;;;;;5.10;3.00;;;;;;;22.14;29.02;100620.89;88350;1271;81852;-66